Time,TemperatureF,DewpointF,PressureIn,WindDirection,WindDirectionDegrees,WindSpeedMPH,WindSpeedGustMPH,Humidity,HourlyPrecipIn,Conditions,Clouds,dailyrainin,SoftwareType,DateUTC
2013-08-04 00:01:00,55.9,31.4,30.06,ENE,62,0.0,0.0,39,0.00,,---,0.00,VWS V14.01,2013-08-04 07:01:00,
2013-08-04 00:07:00,55.6,31.0,30.06,ESE,107,0.0,0.0,39,0.00,,---,0.00,VWS V14.01,2013-08-04 07:07:00,
2013-08-04 00:11:00,55.8,32.1,30.06,East,80,4.0,4.9,40,0.00,,---,0.00,VWS V14.01,2013-08-04 07:11:00,
2013-08-04 00:17:00,55.8,32.1,30.06,ENE,67,3.1,4.5,40,0.00,,---,0.00,VWS V14.01,2013-08-04 07:17:00,
2013-08-04 00:23:00,55.6,32.0,30.06,ENE,62,2.2,3.1,40,0.00,,---,0.00,VWS V14.01,2013-08-04 07:23:00,
2013-08-04 00:28:00,55.2,31.6,30.06,NE,55,3.6,3.6,40,0.00,,---,0.00,VWS V14.01,2013-08-04 07:28:00,
2013-08-04 00:35:00,54.5,31.0,30.06,ENE,62,2.2,2.2,40,0.00,,---,0.00,VWS V14.01,2013-08-04 07:35:00,
2013-08-04 00:40:00,54.3,30.8,30.06,ENE,62,0.0,0.0,40,0.00,,---,0.00,VWS V14.01,2013-08-04 07:40:00,
2013-08-04 00:45:00,54.0,31.4,30.06,ENE,62,0.0,0.0,42,0.00,,---,0.00,VWS V14.01,2013-08-04 07:45:00,
2013-08-04 00:51:00,54.0,31.4,30.06,ENE,62,0.0,0.0,42,0.00,,---,0.00,VWS V14.01,2013-08-04 07:51:00,
2013-08-04 00:57:00,53.6,31.1,30.06,ENE,62,0.0,0.0,42,0.00,,---,0.00,VWS V14.01,2013-08-04 07:57:00,
2013-08-04 01:03:00,53.1,30.6,30.06,ENE,62,0.0,0.0,42,0.00,,---,0.00,VWS V14.01,2013-08-04 08:03:00,
2013-08-04 01:08:00,52.9,31.3,30.06,ENE,62,0.0,0.0,44,0.00,,---,0.00,VWS V14.01,2013-08-04 08:08:00,
2013-08-04 01:13:00,53.1,31.5,30.06,ENE,62,0.0,0.0,44,0.00,,---,0.00,VWS V14.01,2013-08-04 08:13:00,
2013-08-04 01:18:00,52.9,31.3,30.06,ENE,62,0.0,0.0,44,0.00,,---,0.00,VWS V14.01,2013-08-04 08:18:00,
2013-08-04 01:24:00,52.9,31.3,30.06,ENE,62,0.0,0.0,44,0.00,,---,0.00,VWS V14.01,2013-08-04 08:24:00,
2013-08-04 01:29:00,52.5,31.0,30.06,ENE,62,0.0,0.0,44,0.00,,---,0.00,VWS V14.01,2013-08-04 08:29:00,
2013-08-04 01:34:00,52.3,30.8,30.06,ENE,62,0.0,0.0,44,0.00,,---,0.00,VWS V14.01,2013-08-04 08:34:00,
2013-08-04 01:40:00,51.8,30.3,30.06,ENE,62,0.0,0.0,44,0.00,,---,0.00,VWS V14.01,2013-08-04 08:40:00,
2013-08-04 01:46:00,51.6,31.0,30.06,ENE,62,0.0,0.0,45,0.00,,---,0.00,VWS V14.01,2013-08-04 08:46:00,
2013-08-04 01:51:00,51.6,31.0,30.06,ENE,62,0.0,0.0,45,0.00,,---,0.00,VWS V14.01,2013-08-04 08:51:00,
2013-08-04 01:56:00,51.6,31.0,30.06,ENE,62,0.0,0.0,45,0.00,,---,0.00,VWS V14.01,2013-08-04 08:56:00,
2013-08-04 02:02:00,51.3,30.7,30.06,ENE,62,0.0,0.0,45,0.00,,---,0.00,VWS V14.01,2013-08-04 09:02:00,
2013-08-04 02:07:00,51.3,30.7,30.03,ENE,62,0.0,0.0,45,0.00,,---,0.00,VWS V14.01,2013-08-04 09:07:00,
2013-08-04 02:13:00,51.1,31.3,30.03,ENE,62,0.0,0.0,46,0.00,,---,0.00,VWS V14.01,2013-08-04 09:13:00,
2013-08-04 02:18:00,50.7,31.0,30.03,ENE,62,0.0,0.0,46,0.00,,---,0.00,VWS V14.01,2013-08-04 09:18:00,
2013-08-04 02:23:00,50.5,30.8,30.06,ENE,62,0.0,0.0,46,0.00,,---,0.00,VWS V14.01,2013-08-04 09:23:00,
2013-08-04 02:29:00,50.2,30.5,30.06,ENE,62,0.0,0.0,46,0.00,,---,0.00,VWS V14.01,2013-08-04 09:29:00,
2013-08-04 02:34:00,50.2,31.3,30.06,ENE,73,4.0,5.4,48,0.00,,---,0.00,VWS V14.01,2013-08-04 09:34:00,
2013-08-04 02:40:00,50.2,31.3,30.06,East,88,0.0,0.0,48,0.00,,---,0.00,VWS V14.01,2013-08-04 09:40:00,
2013-08-04 02:45:00,50.2,31.3,30.06,East,87,0.0,0.0,48,0.00,,---,0.00,VWS V14.01,2013-08-04 09:45:00,
2013-08-04 02:51:00,49.8,31.7,30.03,East,88,0.0,0.0,50,0.00,,---,0.00,VWS V14.01,2013-08-04 09:51:00,
2013-08-04 02:57:00,49.6,31.5,30.03,East,87,0.0,0.0,50,0.00,,---,0.00,VWS V14.01,2013-08-04 09:57:00,
2013-08-04 03:03:00,49.6,32.3,30.03,East,88,2.2,2.2,51,0.00,,---,0.00,VWS V14.01,2013-08-04 10:03:00,
2013-08-04 03:08:00,49.8,32.4,30.03,East,88,0.0,0.0,51,0.00,,---,0.00,VWS V14.01,2013-08-04 10:08:00,
2013-08-04 03:14:00,49.8,32.4,30.03,East,88,0.0,0.0,51,0.00,,---,0.00,VWS V14.01,2013-08-04 10:14:00,
2013-08-04 03:20:00,49.1,31.8,30.03,NE,49,0.0,0.0,51,0.00,,---,0.00,VWS V14.01,2013-08-04 10:20:00,
2013-08-04 03:26:00,48.7,31.4,30.03,NE,49,0.0,0.0,51,0.00,,---,0.00,VWS V14.01,2013-08-04 10:26:00,
2013-08-04 03:31:00,48.7,32.2,30.03,NE,49,0.0,0.0,52,0.00,,---,0.00,VWS V14.01,2013-08-04 10:31:00,
2013-08-04 03:37:00,48.9,32.3,30.03,NE,49,0.0,0.0,52,0.00,,---,0.00,VWS V14.01,2013-08-04 10:37:00,
2013-08-04 03:42:00,48.9,32.3,30.03,NE,49,0.0,0.0,52,0.00,,---,0.00,VWS V14.01,2013-08-04 10:42:00,
2013-08-04 03:47:00,48.9,32.3,30.03,NE,49,0.0,0.0,52,0.00,,---,0.00,VWS V14.01,2013-08-04 10:47:00,
2013-08-04 03:53:00,48.2,31.6,30.03,NE,49,0.0,0.0,52,0.00,,---,0.00,VWS V14.01,2013-08-04 10:53:00,
2013-08-04 03:58:00,48.0,32.2,30.03,NE,49,0.0,0.0,54,0.00,,---,0.00,VWS V14.01,2013-08-04 10:58:00,
2013-08-04 04:03:00,47.8,32.0,30.03,NE,49,0.0,0.0,54,0.00,,---,0.00,VWS V14.01,2013-08-04 11:03:00,
2013-08-04 04:08:00,48.0,32.2,30.03,NE,49,0.0,0.0,54,0.00,,---,0.00,VWS V14.01,2013-08-04 11:08:00,
2013-08-04 04:13:00,48.0,32.9,30.03,NE,49,0.0,0.0,56,0.00,,---,0.00,VWS V14.01,2013-08-04 11:13:00,
2013-08-04 04:19:00,47.8,32.7,30.03,NE,49,0.0,0.0,56,0.00,,---,0.00,VWS V14.01,2013-08-04 11:19:00,
2013-08-04 04:24:00,47.8,32.7,30.03,NE,49,0.0,0.0,56,0.00,,---,0.00,VWS V14.01,2013-08-04 11:24:00,
2013-08-04 04:29:00,47.7,32.5,30.03,NE,49,0.0,0.0,56,0.00,,---,0.00,VWS V14.01,2013-08-04 11:29:00,
2013-08-04 04:34:00,47.5,32.4,30.03,NE,49,0.0,0.0,56,0.00,,---,0.00,VWS V14.01,2013-08-04 11:34:00,
2013-08-04 04:40:00,47.7,32.5,30.03,NE,49,0.0,0.0,56,0.00,,---,0.00,VWS V14.01,2013-08-04 11:40:00,
2013-08-04 04:45:00,47.3,32.2,30.03,NE,49,0.0,0.0,56,0.00,,---,0.00,VWS V14.01,2013-08-04 11:45:00,
2013-08-04 04:50:00,46.9,31.9,30.03,NE,49,0.0,0.0,56,0.00,,---,0.00,VWS V14.01,2013-08-04 11:50:00,
2013-08-04 04:55:00,46.9,31.9,30.03,NE,49,0.0,0.0,56,0.00,,---,0.00,VWS V14.01,2013-08-04 11:55:00,
2013-08-04 05:01:00,47.1,32.0,30.03,ESE,108,0.0,0.0,56,0.00,,---,0.00,VWS V14.01,2013-08-04 12:01:00,
2013-08-04 05:06:00,47.1,32.7,30.03,ESE,108,0.0,0.0,57,0.00,,---,0.00,VWS V14.01,2013-08-04 12:06:00,
2013-08-04 05:11:00,47.1,32.7,30.03,ESE,108,0.0,0.0,57,0.00,,---,0.00,VWS V14.01,2013-08-04 12:11:00,
2013-08-04 05:16:00,46.9,32.5,30.03,ESE,108,0.0,0.0,57,0.00,,---,0.00,VWS V14.01,2013-08-04 12:16:00,
2013-08-04 05:21:00,46.9,32.5,30.03,ESE,108,0.0,0.0,57,0.00,,---,0.00,VWS V14.01,2013-08-04 12:21:00,
2013-08-04 05:27:00,46.6,32.2,30.03,East,84,0.0,0.0,57,0.00,,---,0.00,VWS V14.01,2013-08-04 12:27:00,
2013-08-04 05:32:00,46.6,32.2,30.03,East,84,0.0,0.0,57,0.00,,---,0.00,VWS V14.01,2013-08-04 12:32:00,
2013-08-04 05:38:00,46.8,32.3,30.06,East,84,0.0,0.0,57,0.00,,---,0.00,VWS V14.01,2013-08-04 12:38:00,
2013-08-04 05:43:00,46.9,32.5,30.06,East,84,0.0,0.0,57,0.00,,---,0.00,VWS V14.01,2013-08-04 12:43:00,
2013-08-04 05:50:00,46.8,32.3,30.06,East,84,0.0,0.0,57,0.00,,---,0.00,VWS V14.01,2013-08-04 12:50:00,
2013-08-04 05:55:00,46.6,32.2,30.06,East,84,0.0,0.0,57,0.00,,---,0.00,VWS V14.01,2013-08-04 12:55:00,
2013-08-04 05:59:00,46.2,32.5,30.06,ENE,76,0.0,0.0,58,0.00,,---,0.00,VWS V14.01,2013-08-04 12:59:00,
2013-08-04 06:05:00,46.4,32.0,30.06,ENE,76,0.0,0.0,57,0.00,,---,0.00,VWS V14.01,2013-08-04 13:05:00,
2013-08-04 06:10:00,46.2,32.5,30.06,ENE,76,0.0,0.0,58,0.00,,---,0.00,VWS V14.01,2013-08-04 13:10:00,
2013-08-04 06:16:00,46.4,32.0,30.06,ESE,118,0.0,0.0,57,0.00,,---,0.00,VWS V14.01,2013-08-04 13:16:00,
2013-08-04 06:22:00,46.4,32.0,30.06,ENE,57,2.7,2.7,57,0.00,,---,0.00,VWS V14.01,2013-08-04 13:22:00,
2013-08-04 06:27:00,46.6,32.2,30.06,ENE,61,0.0,0.0,57,0.00,,---,0.00,VWS V14.01,2013-08-04 13:27:00,
2013-08-04 06:33:00,46.4,32.7,30.06,ENE,61,0.0,0.0,58,0.00,,---,0.00,VWS V14.01,2013-08-04 13:33:00,
2013-08-04 06:38:00,46.8,33.0,30.06,ENE,61,0.0,0.0,58,0.00,,---,0.00,VWS V14.01,2013-08-04 13:38:00,
2013-08-04 06:44:00,47.3,33.5,30.06,ENE,60,0.0,0.0,58,0.00,,---,0.00,VWS V14.01,2013-08-04 13:44:00,
2013-08-04 06:50:00,47.8,34.0,30.06,ENE,60,0.0,0.0,58,0.00,,---,0.00,VWS V14.01,2013-08-04 13:50:00,
2013-08-04 06:56:00,47.8,34.0,30.06,NNW,337,0.0,0.0,58,0.00,,---,0.00,VWS V14.01,2013-08-04 13:56:00,
2013-08-04 07:02:00,48.0,34.2,30.06,NNW,337,0.0,0.0,58,0.00,,---,0.00,VWS V14.01,2013-08-04 14:02:00,
2013-08-04 07:07:00,48.7,34.8,30.06,NE,51,0.0,0.0,58,0.00,,---,0.00,VWS V14.01,2013-08-04 14:07:00,
2013-08-04 07:12:00,50.2,36.2,30.06,NE,51,0.0,0.0,58,0.00,,---,0.00,VWS V14.01,2013-08-04 14:12:00,
2013-08-04 07:15:00,50.9,36.9,30.06,NE,51,0.0,0.0,58,0.00,,---,0.00,VWS V14.01,2013-08-04 14:15:00,
2013-08-04 07:20:00,52.3,37.6,30.06,East,84,0.0,0.0,57,0.00,,---,0.00,VWS V14.01,2013-08-04 14:20:00,
2013-08-04 07:26:00,54.5,39.6,30.06,SE,131,0.0,0.0,57,0.00,,---,0.00,VWS V14.01,2013-08-04 14:26:00,
2013-08-04 07:31:00,55.9,40.9,30.06,South,191,0.0,0.0,57,0.00,,---,0.00,VWS V14.01,2013-08-04 14:31:00,
2013-08-04 07:37:00,57.6,41.8,30.06,NW,305,0.0,0.0,56,0.00,,---,0.00,VWS V14.01,2013-08-04 14:37:00,
2013-08-04 07:43:00,59.4,43.4,30.06,SSW,213,0.0,0.0,56,0.00,,---,0.00,VWS V14.01,2013-08-04 14:43:00,
2013-08-04 07:49:00,60.4,43.7,30.06,SSW,198,0.0,0.0,54,0.00,,---,0.00,VWS V14.01,2013-08-04 14:49:00,
2013-08-04 07:55:00,60.4,43.7,30.06,SW,215,0.0,0.0,54,0.00,,---,0.00,VWS V14.01,2013-08-04 14:55:00,
2013-08-04 08:00:00,60.4,43.0,30.06,SSW,208,0.0,0.0,52,0.00,,---,0.00,VWS V14.01,2013-08-04 15:00:00,
2013-08-04 08:05:00,60.6,43.2,30.06,WSW,239,0.0,0.0,52,0.00,,---,0.00,VWS V14.01,2013-08-04 15:05:00,
2013-08-04 08:11:00,61.0,42.7,30.06,SW,230,0.0,0.0,51,0.00,,---,0.00,VWS V14.01,2013-08-04 15:11:00,
2013-08-04 08:17:00,63.1,44.7,30.06,SE,128,0.0,0.0,51,0.00,,---,0.00,VWS V14.01,2013-08-04 15:17:00,
2013-08-04 08:23:00,66.0,46.6,30.06,East,98,0.0,0.0,50,0.00,,---,0.00,VWS V14.01,2013-08-04 15:23:00,
2013-08-04 08:28:00,67.3,46.9,30.06,SE,134,0.0,0.0,48,0.00,,---,0.00,VWS V14.01,2013-08-04 15:28:00,
2013-08-04 08:34:00,68.0,45.9,30.06,SSE,154,0.0,0.0,45,0.00,,---,0.00,VWS V14.01,2013-08-04 15:34:00,
2013-08-04 08:39:00,68.7,46.5,30.06,South,184,0.0,0.0,45,0.00,,---,0.00,VWS V14.01,2013-08-04 15:39:00,
2013-08-04 08:44:00,70.2,47.0,30.06,SSE,164,0.0,0.0,44,0.00,,---,0.00,VWS V14.01,2013-08-04 15:44:00,
2013-08-04 08:50:00,72.3,48.0,30.06,SSE,150,3.1,3.1,42,0.00,,---,0.00,VWS V14.01,2013-08-04 15:50:00,
2013-08-04 08:56:00,74.3,47.8,30.06,SW,231,0.0,3.6,39,0.00,,---,0.00,VWS V14.01,2013-08-04 15:56:00,
2013-08-04 09:02:00,76.1,47.2,30.06,West,278,0.0,0.0,36,0.00,,---,0.00,VWS V14.01,2013-08-04 16:02:00,
2013-08-04 09:07:00,77.4,46.0,30.06,WSW,256,4.0,5.8,33,0.00,,---,0.00,VWS V14.01,2013-08-04 16:07:00,
2013-08-04 09:12:00,77.4,44.8,30.06,West,276,3.1,3.1,32,0.00,,---,0.00,VWS V14.01,2013-08-04 16:12:00,
2013-08-04 09:17:00,77.0,43.2,30.06,West,276,3.1,3.1,30,0.00,,---,0.00,VWS V14.01,2013-08-04 16:17:00,
2013-08-04 09:23:00,75.9,42.3,30.06,West,276,3.1,3.1,30,0.00,,---,0.00,VWS V14.01,2013-08-04 16:23:00,
2013-08-04 09:29:00,75.6,42.0,30.06,West,265,7.6,7.6,30,0.00,,---,0.00,VWS V14.01,2013-08-04 16:29:00,
2013-08-04 09:35:00,75.7,39.4,30.06,West,262,5.4,5.4,27,0.00,,---,0.00,VWS V14.01,2013-08-04 16:35:00,
2013-08-04 09:40:00,75.7,39.4,30.06,WSW,248,6.3,6.3,27,0.00,,---,0.00,VWS V14.01,2013-08-04 16:40:00,
2013-08-04 09:46:00,76.1,39.7,30.06,WSW,248,6.3,6.3,27,0.00,,---,0.00,VWS V14.01,2013-08-04 16:46:00,
2013-08-04 09:51:00,77.7,41.1,30.06,West,271,7.6,7.6,27,0.00,,---,0.00,VWS V14.01,2013-08-04 16:51:00,
2013-08-04 09:56:00,79.5,41.2,30.06,SSE,159,4.0,4.0,26,0.00,,---,0.00,VWS V14.01,2013-08-04 16:56:00,
2013-08-04 10:02:00,80.4,38.7,30.06,West,266,6.7,6.7,22,0.00,,---,0.00,VWS V14.01,2013-08-04 17:02:00,
2013-08-04 10:07:00,80.1,38.4,30.09,WSW,247,8.3,8.7,22,0.00,,---,0.00,VWS V14.01,2013-08-04 17:07:00,
2013-08-04 10:13:00,79.2,37.7,30.09,SW,232,8.7,8.7,22,0.00,,---,0.00,VWS V14.01,2013-08-04 17:13:00,
2013-08-04 10:18:00,78.4,37.0,30.09,WSW,254,6.3,7.6,22,0.00,,---,0.00,VWS V14.01,2013-08-04 17:18:00,
2013-08-04 10:24:00,79.3,37.8,30.09,WSW,245,8.1,8.1,22,0.00,,---,0.00,VWS V14.01,2013-08-04 17:24:00,
2013-08-04 10:30:00,80.6,37.1,30.09,SSW,199,7.6,10.1,21,0.00,,---,0.00,VWS V14.01,2013-08-04 17:30:00,
2013-08-04 10:35:00,81.3,37.7,30.09,NNW,329,8.3,8.3,21,0.00,,---,0.00,VWS V14.01,2013-08-04 17:35:00,
2013-08-04 10:41:00,81.7,38.0,30.09,West,266,5.8,5.8,21,0.00,,---,0.00,VWS V14.01,2013-08-04 17:41:00,
2013-08-04 10:46:00,82.6,38.7,30.09,WSW,248,3.1,6.7,21,0.00,,---,0.00,VWS V14.01,2013-08-04 17:46:00,
2013-08-04 10:51:00,83.3,39.3,30.06,West,274,8.3,10.5,21,0.00,,---,0.00,VWS V14.01,2013-08-04 17:51:00,
2013-08-04 10:56:00,83.7,39.6,30.06,WSW,246,10.5,11.0,21,0.00,,---,0.00,VWS V14.01,2013-08-04 17:56:00,
2013-08-04 11:02:00,84.2,38.2,30.06,WNW,290,7.6,8.7,20,0.00,,---,0.00,VWS V14.01,2013-08-04 18:02:00,
2013-08-04 11:08:00,83.5,39.5,30.09,WSW,257,13.2,13.2,21,0.00,,---,0.00,VWS V14.01,2013-08-04 18:08:00,
2013-08-04 11:14:00,84.4,38.3,30.09,West,261,8.3,11.0,20,0.00,,---,0.00,VWS V14.01,2013-08-04 18:14:00,
2013-08-04 11:19:00,84.4,38.3,30.09,SW,215,12.8,15.0,20,0.00,,---,0.00,VWS V14.01,2013-08-04 18:19:00,
2013-08-04 11:24:00,85.1,38.9,30.06,West,274,7.6,10.5,20,0.00,,---,0.00,VWS V14.01,2013-08-04 18:24:00,
2013-08-04 11:30:00,85.3,39.1,30.06,West,261,12.3,12.3,20,0.00,,---,0.00,VWS V14.01,2013-08-04 18:30:00,
2013-08-04 11:37:00,84.9,38.8,30.09,WNW,285,10.5,13.2,20,0.00,,---,0.00,VWS V14.01,2013-08-04 18:37:00,
2013-08-04 11:42:00,84.7,38.6,30.09,West,261,11.0,11.4,20,0.00,,---,0.00,VWS V14.01,2013-08-04 18:42:00,
2013-08-04 11:47:00,85.6,39.4,30.09,WSW,253,12.3,12.8,20,0.00,,---,0.00,VWS V14.01,2013-08-04 18:47:00,
2013-08-04 11:53:00,86.2,39.8,30.06,West,262,11.4,15.4,20,0.00,,---,0.00,VWS V14.01,2013-08-04 18:53:00,
2013-08-04 11:58:00,85.5,39.2,30.06,SW,229,15.9,15.9,20,0.00,,---,0.00,VWS V14.01,2013-08-04 18:58:00,
2013-08-04 12:04:00,86.0,39.7,30.06,SW,235,8.7,13.2,20,0.00,,---,0.00,VWS V14.01,2013-08-04 19:04:00,
2013-08-04 12:09:00,86.5,40.1,30.06,SW,220,14.5,14.5,20,0.00,,---,0.00,VWS V14.01,2013-08-04 19:09:00,
2013-08-04 12:15:00,86.9,40.4,30.06,WNW,303,10.1,13.2,20,0.00,,---,0.00,VWS V14.01,2013-08-04 19:15:00,
2013-08-04 12:21:00,87.1,40.5,30.06,WSW,254,8.1,10.1,20,0.00,,---,0.00,VWS V14.01,2013-08-04 19:21:00,
2013-08-04 12:26:00,86.9,40.4,30.06,SW,227,8.1,11.0,20,0.00,,---,0.00,VWS V14.01,2013-08-04 19:26:00,
2013-08-04 12:31:00,88.0,41.3,30.06,West,269,12.8,14.5,20,0.00,,---,0.00,VWS V14.01,2013-08-04 19:31:00,
2013-08-04 12:37:00,87.4,40.8,30.06,West,273,7.6,11.0,20,0.00,,---,0.00,VWS V14.01,2013-08-04 19:37:00,
2013-08-04 12:43:00,87.8,41.1,30.06,West,276,8.3,8.3,20,0.00,,---,0.00,VWS V14.01,2013-08-04 19:43:00,
2013-08-04 12:48:00,87.3,40.7,30.06,West,268,6.3,8.3,20,0.00,,---,0.00,VWS V14.01,2013-08-04 19:48:00,
2013-08-04 12:54:00,86.7,40.2,30.06,West,271,8.3,8.3,20,0.00,,---,0.00,VWS V14.01,2013-08-04 19:54:00,
2013-08-04 13:00:00,87.8,41.1,30.06,WNW,297,6.3,7.6,20,0.00,,---,0.00,VWS V14.01,2013-08-04 20:00:00,
2013-08-04 13:05:00,87.8,41.1,30.06,West,265,13.6,13.6,20,0.00,,---,0.00,VWS V14.01,2013-08-04 20:05:00,
2013-08-04 13:11:00,88.0,41.3,30.06,SW,226,6.3,12.8,20,0.00,,---,0.00,VWS V14.01,2013-08-04 20:11:00,
2013-08-04 13:17:00,89.2,42.3,30.06,West,266,6.3,8.1,20,0.00,,---,0.00,VWS V14.01,2013-08-04 20:17:00,
2013-08-04 13:22:00,88.2,41.4,30.06,NW,326,8.3,10.5,20,0.00,,---,0.00,VWS V14.01,2013-08-04 20:22:00,
2013-08-04 13:28:00,88.7,41.9,30.06,SW,229,7.6,10.1,20,0.00,,---,0.00,VWS V14.01,2013-08-04 20:28:00,
2013-08-04 13:33:00,88.5,41.7,30.06,West,273,8.1,10.5,20,0.00,,---,0.00,VWS V14.01,2013-08-04 20:33:00,
2013-08-04 13:39:00,88.5,41.7,30.06,WNW,292,2.7,8.7,20,0.00,,---,0.00,VWS V14.01,2013-08-04 20:39:00,
2013-08-04 13:44:00,88.9,42.0,30.06,WSW,252,8.7,10.5,20,0.00,,---,0.00,VWS V14.01,2013-08-04 20:44:00,
2013-08-04 13:50:00,89.4,42.5,30.06,WSW,258,10.1,12.3,20,0.00,,---,0.00,VWS V14.01,2013-08-04 20:50:00,
2013-08-04 13:56:00,89.4,42.5,30.06,WSW,249,10.5,11.0,20,0.00,,---,0.00,VWS V14.01,2013-08-04 20:56:00,
2013-08-04 14:01:00,89.2,42.3,30.06,NW,317,8.3,9.2,20,0.00,,---,0.00,VWS V14.01,2013-08-04 21:01:00,
2013-08-04 14:06:00,89.2,42.3,30.06,West,267,12.3,15.4,20,0.00,,---,0.00,VWS V14.01,2013-08-04 21:06:00,
2013-08-04 14:12:00,89.2,42.3,30.06,West,279,14.5,15.0,20,0.00,,---,0.00,VWS V14.01,2013-08-04 21:12:00,
2013-08-04 14:17:00,88.3,41.6,30.06,West,269,14.1,14.1,20,0.00,,---,0.00,VWS V14.01,2013-08-04 21:17:00,
2013-08-04 14:23:00,88.5,41.7,30.06,WSW,258,13.6,13.6,20,0.00,,---,0.00,VWS V14.01,2013-08-04 21:23:00,
2013-08-04 14:28:00,88.7,41.9,30.06,WNW,290,8.7,10.5,20,0.00,,---,0.00,VWS V14.01,2013-08-04 21:28:00,
2013-08-04 14:32:00,88.0,41.3,30.06,WNW,303,9.2,12.3,20,0.00,,---,0.00,VWS V14.01,2013-08-04 21:32:00,
2013-08-04 14:39:00,88.0,41.3,30.06,NW,316,7.2,13.2,20,0.00,,---,0.00,VWS V14.01,2013-08-04 21:39:00,
2013-08-04 14:45:00,88.2,41.4,30.06,WSW,253,12.3,12.3,20,0.00,,---,0.00,VWS V14.01,2013-08-04 21:45:00,
2013-08-04 14:50:00,88.3,41.6,30.06,SW,233,7.2,11.9,20,0.00,,---,0.00,VWS V14.01,2013-08-04 21:50:00,
2013-08-04 14:55:00,88.2,41.4,30.06,West,266,13.6,13.6,20,0.00,,---,0.00,VWS V14.01,2013-08-04 21:55:00,
2013-08-04 15:02:00,89.1,42.2,30.06,WSW,252,12.8,12.8,20,0.00,,---,0.00,VWS V14.01,2013-08-04 22:02:00,
2013-08-04 15:07:00,89.2,42.3,30.06,WSW,256,5.8,11.4,20,0.00,,---,0.00,VWS V14.01,2013-08-04 22:07:00,
2013-08-04 15:13:00,88.9,42.0,30.06,West,280,8.1,10.5,20,0.00,,---,0.00,VWS V14.01,2013-08-04 22:13:00,
2013-08-04 15:18:00,90.0,40.8,30.06,West,266,13.6,13.6,18,0.00,,---,0.00,VWS V14.01,2013-08-04 22:18:00,
2013-08-04 15:23:00,90.0,40.8,30.06,WSW,258,8.7,11.0,18,0.00,,---,0.00,VWS V14.01,2013-08-04 22:23:00,
2013-08-04 15:28:00,88.3,41.6,30.06,NW,318,10.1,12.8,20,0.00,,---,0.00,VWS V14.01,2013-08-04 22:28:00,
2013-08-04 15:34:00,89.1,42.2,30.06,SW,236,10.1,15.0,20,0.00,,---,0.00,VWS V14.01,2013-08-04 22:34:00,
2013-08-04 15:39:00,89.6,40.5,30.06,SSW,212,11.9,14.5,18,0.00,,---,0.00,VWS V14.01,2013-08-04 22:39:00,
2013-08-04 15:45:00,90.0,40.8,30.06,West,275,9.6,10.5,18,0.00,,---,0.00,VWS V14.01,2013-08-04 22:45:00,
2013-08-04 15:51:00,89.6,40.5,30.03,West,276,8.1,17.4,18,0.00,,---,0.00,VWS V14.01,2013-08-04 22:51:00,
2013-08-04 15:57:00,90.0,40.8,30.03,WSW,252,11.0,13.2,18,0.00,,---,0.00,VWS V14.01,2013-08-04 22:57:00,
2013-08-04 16:03:00,89.6,40.5,30.03,West,266,10.5,13.2,18,0.00,,---,0.00,VWS V14.01,2013-08-04 23:03:00,
2013-08-04 16:08:00,89.2,42.3,30.03,WSW,255,10.1,13.2,20,0.00,,---,0.00,VWS V14.01,2013-08-04 23:08:00,
2013-08-04 16:14:00,89.2,42.3,30.03,WNW,293,12.8,12.8,20,0.00,,---,0.00,VWS V14.01,2013-08-04 23:14:00,
2013-08-04 16:20:00,89.6,40.5,30.03,WSW,251,10.5,13.6,18,0.00,,---,0.00,VWS V14.01,2013-08-04 23:20:00,
2013-08-04 16:26:00,89.4,42.5,30.03,West,277,11.4,12.8,20,0.00,,---,0.00,VWS V14.01,2013-08-04 23:26:00,
2013-08-04 16:31:00,88.5,41.7,30.03,NW,315,6.3,8.7,20,0.00,,---,0.00,VWS V14.01,2013-08-04 23:31:00,
2013-08-04 16:37:00,88.5,41.7,30.03,West,261,11.0,11.0,20,0.00,,---,0.00,VWS V14.01,2013-08-04 23:37:00,
2013-08-04 16:43:00,87.4,40.8,30.03,NW,323,8.7,12.8,20,0.00,,---,0.00,VWS V14.01,2013-08-04 23:43:00,
2013-08-04 16:48:00,87.1,40.5,30.03,WNW,285,12.8,13.6,20,0.00,,---,0.00,VWS V14.01,2013-08-04 23:48:00,
2013-08-04 16:54:00,87.8,41.1,30.03,WSW,256,7.6,10.1,20,0.00,,---,0.00,VWS V14.01,2013-08-04 23:54:00,
2013-08-04 16:59:00,88.2,41.4,30.03,West,273,10.1,13.6,20,0.00,,---,0.00,VWS V14.01,2013-08-04 23:59:00,
2013-08-04 17:04:00,87.6,41.0,30.03,West,259,12.3,12.3,20,0.00,,---,0.00,VWS V14.01,2013-08-05 00:04:00,
2013-08-04 17:10:00,88.2,41.4,30.03,West,266,5.4,7.6,20,0.00,,---,0.00,VWS V14.01,2013-08-05 00:10:00,
2013-08-04 17:16:00,86.2,39.8,30.03,West,266,8.1,10.1,20,0.00,,---,0.00,VWS V14.01,2013-08-05 00:16:00,
2013-08-04 17:21:00,86.9,40.4,30.03,West,263,8.1,12.3,20,0.00,,---,0.00,VWS V14.01,2013-08-05 00:21:00,
2013-08-04 17:26:00,86.5,40.1,30.03,West,267,8.1,10.5,20,0.00,,---,0.00,VWS V14.01,2013-08-05 00:26:00,
2013-08-04 17:31:00,85.8,39.5,30.03,WNW,286,10.5,11.0,20,0.00,,---,0.00,VWS V14.01,2013-08-05 00:31:00,
2013-08-04 17:37:00,84.0,39.9,30.03,West,272,11.0,11.0,21,0.00,,---,0.00,VWS V14.01,2013-08-05 00:37:00,
2013-08-04 17:42:00,84.4,38.3,30.03,West,267,10.5,11.0,20,0.00,,---,0.00,VWS V14.01,2013-08-05 00:42:00,
2013-08-04 17:48:00,84.4,38.3,30.03,West,260,8.1,11.4,20,0.00,,---,0.00,VWS V14.01,2013-08-05 00:48:00,
2013-08-04 17:53:00,84.0,39.9,30.03,West,274,9.6,11.0,21,0.00,,---,0.00,VWS V14.01,2013-08-05 00:53:00,
2013-08-04 17:59:00,83.3,39.3,30.03,West,271,10.5,12.8,21,0.00,,---,0.00,VWS V14.01,2013-08-05 00:59:00,
2013-08-04 18:04:00,82.6,38.7,30.03,WSW,241,8.3,10.5,21,0.00,,---,0.00,VWS V14.01,2013-08-05 01:04:00,
2013-08-04 18:10:00,82.6,38.7,30.03,West,264,6.7,10.5,21,0.00,,---,0.00,VWS V14.01,2013-08-05 01:10:00,
2013-08-04 18:15:00,82.9,39.0,30.03,WSW,250,8.3,11.9,21,0.00,,---,0.00,VWS V14.01,2013-08-05 01:15:00,
2013-08-04 18:21:00,82.8,38.9,30.03,WSW,248,9.6,10.1,21,0.00,,---,0.00,VWS V14.01,2013-08-05 01:21:00,
2013-08-04 18:25:00,82.6,38.7,30.03,WSW,252,8.1,8.3,21,0.00,,---,0.00,VWS V14.01,2013-08-05 01:25:00,
2013-08-04 18:32:00,82.4,38.6,30.03,WSW,254,8.3,11.0,21,0.00,,---,0.00,VWS V14.01,2013-08-05 01:32:00,
2013-08-04 18:38:00,82.8,38.9,30.03,SW,231,6.3,8.3,21,0.00,,---,0.00,VWS V14.01,2013-08-05 01:38:00,
2013-08-04 18:44:00,81.5,37.8,30.03,WSW,254,10.1,10.1,21,0.00,,---,0.00,VWS V14.01,2013-08-05 01:44:00,
2013-08-04 18:48:00,80.6,37.1,30.03,West,259,11.0,11.0,21,0.00,,---,0.00,VWS V14.01,2013-08-05 01:48:00,
2013-08-04 18:54:00,80.4,38.7,30.03,West,264,9.6,10.5,22,0.00,,---,0.00,VWS V14.01,2013-08-05 01:54:00,
2013-08-04 18:59:00,79.5,38.0,30.03,WSW,247,8.7,10.1,22,0.00,,---,0.00,VWS V14.01,2013-08-05 01:59:00,
2013-08-04 19:05:00,78.4,33.5,30.03,West,260,8.1,8.3,20,0.00,,---,0.00,VWS V14.01,2013-08-05 02:05:00,
2013-08-04 19:11:00,77.5,32.7,30.03,WSW,254,10.1,10.5,20,0.00,,---,0.00,VWS V14.01,2013-08-05 02:11:00,
2013-08-04 19:17:00,77.4,32.6,30.03,West,261,8.3,10.5,20,0.00,,---,0.00,VWS V14.01,2013-08-05 02:17:00,
2013-08-04 19:22:00,77.5,32.7,30.06,West,264,6.3,8.3,20,0.00,,---,0.00,VWS V14.01,2013-08-05 02:22:00,
2013-08-04 19:28:00,76.5,31.8,30.06,West,259,8.1,8.3,20,0.00,,---,0.00,VWS V14.01,2013-08-05 02:28:00,
2013-08-04 19:33:00,75.4,30.9,30.06,WSW,257,6.7,8.1,20,0.00,,---,0.00,VWS V14.01,2013-08-05 02:33:00,
2013-08-04 19:39:00,74.7,30.3,30.06,West,266,8.7,9.6,20,0.00,,---,0.00,VWS V14.01,2013-08-05 02:39:00,
2013-08-04 19:44:00,74.7,30.3,30.06,West,272,6.7,8.3,20,0.00,,---,0.00,VWS V14.01,2013-08-05 02:44:00,
2013-08-04 19:49:00,73.9,29.8,30.06,West,279,5.8,6.3,20,0.00,,---,0.00,VWS V14.01,2013-08-05 02:49:00,
2013-08-04 19:55:00,73.2,31.0,30.06,West,261,4.0,4.0,21,0.00,,---,0.00,VWS V14.01,2013-08-05 02:55:00,
2013-08-04 20:02:00,72.7,30.5,30.06,WSW,250,4.0,4.9,21,0.00,,---,0.00,VWS V14.01,2013-08-05 03:02:00,
2013-08-04 20:07:00,72.3,30.2,30.06,West,259,2.7,2.7,21,0.00,,---,0.00,VWS V14.01,2013-08-05 03:07:00,
2013-08-04 20:12:00,72.0,29.9,30.06,West,261,3.6,4.9,21,0.00,,---,0.00,VWS V14.01,2013-08-05 03:12:00,
2013-08-04 20:18:00,71.4,29.5,30.06,WSW,256,0.0,2.2,21,0.00,,---,0.00,VWS V14.01,2013-08-05 03:18:00,
2013-08-04 20:23:00,71.2,29.3,30.06,WSW,256,0.0,0.0,21,0.00,,---,0.00,VWS V14.01,2013-08-05 03:23:00,
2013-08-04 20:28:00,70.7,28.9,30.06,WSW,256,0.0,0.0,21,0.00,,---,0.00,VWS V14.01,2013-08-05 03:28:00,
2013-08-04 20:34:00,70.2,28.4,30.06,WSW,257,0.0,0.0,21,0.00,,---,0.00,VWS V14.01,2013-08-05 03:34:00,
2013-08-04 20:39:00,69.8,28.1,30.06,WSW,256,0.0,0.0,21,0.00,,---,0.00,VWS V14.01,2013-08-05 03:39:00,
2013-08-04 20:44:00,69.4,29.5,30.06,WSW,256,0.0,0.0,22,0.00,,---,0.00,VWS V14.01,2013-08-05 03:44:00,
2013-08-04 20:50:00,68.9,29.1,30.06,WSW,254,0.0,0.0,22,0.00,,---,0.00,VWS V14.01,2013-08-05 03:50:00,
2013-08-04 20:56:00,68.5,28.8,30.06,West,264,4.5,4.5,22,0.00,,---,0.00,VWS V14.01,2013-08-05 03:56:00,
2013-08-04 21:01:00,68.2,28.5,30.06,West,272,4.0,4.5,22,0.00,,---,0.00,VWS V14.01,2013-08-05 04:01:00,
2013-08-04 21:02:00,68.2,28.5,30.06,West,272,4.0,4.0,22,0.00,,---,0.00,VWS V14.01,2013-08-05 04:02:00,
2013-08-04 21:03:00,68.0,28.3,30.06,West,271,3.6,4.0,22,0.00,,---,0.00,VWS V14.01,2013-08-05 04:03:00,
2013-08-04 21:06:00,68.0,28.3,30.06,WNW,289,0.0,3.1,22,0.00,,---,0.00,VWS V14.01,2013-08-05 04:06:00,
2013-08-04 21:12:00,67.3,27.7,30.06,ENE,58,5.4,5.8,22,0.00,,---,0.00,VWS V14.01,2013-08-05 04:12:00,
2013-08-04 21:13:00,67.1,27.6,30.06,NE,55,4.9,5.4,22,0.00,,---,0.00,VWS V14.01,2013-08-05 04:13:00,
2013-08-04 21:18:00,66.4,27.0,30.06,NNE,31,3.1,4.0,22,0.00,,---,0.00,VWS V14.01,2013-08-05 04:18:00,
2013-08-04 21:24:00,65.7,26.4,30.06,ENE,71,0.0,0.0,22,0.00,,---,0.00,VWS V14.01,2013-08-05 04:24:00,
2013-08-04 21:29:00,64.9,25.8,30.06,North,0,0.0,0.0,22,0.00,,---,0.00,VWS V14.01,2013-08-05 04:29:00,
2013-08-04 21:35:00,64.4,25.3,30.06,North,357,0.0,0.0,22,0.00,,---,0.00,VWS V14.01,2013-08-05 04:35:00,
2013-08-04 21:40:00,64.4,25.3,30.06,NE,48,3.6,4.0,22,0.00,,---,0.00,VWS V14.01,2013-08-05 04:40:00,
2013-08-04 21:46:00,64.2,26.7,30.06,NE,48,0.0,0.0,24,0.00,,---,0.00,VWS V14.01,2013-08-05 04:46:00,
2013-08-04 21:52:00,63.9,26.4,30.06,NE,48,0.0,0.0,24,0.00,,---,0.00,VWS V14.01,2013-08-05 04:52:00,
2013-08-04 21:58:00,63.0,25.6,30.06,NE,48,0.0,0.0,24,0.00,,---,0.00,VWS V14.01,2013-08-05 04:58:00,
2013-08-04 22:03:00,62.4,25.2,30.06,ENE,68,0.0,0.0,24,0.00,,---,0.00,VWS V14.01,2013-08-05 05:03:00,
2013-08-04 22:08:00,61.9,24.7,30.06,ENE,69,3.6,4.0,24,0.00,,---,0.00,VWS V14.01,2013-08-05 05:08:00,
2013-08-04 22:14:00,61.3,24.3,30.06,SE,137,2.7,2.7,24,0.00,,---,0.00,VWS V14.01,2013-08-05 05:14:00,
2013-08-04 22:19:00,61.2,24.1,30.06,East,95,0.0,0.0,24,0.00,,---,0.00,VWS V14.01,2013-08-05 05:19:00,
2013-08-04 22:25:00,60.4,25.0,30.06,ENE,59,0.0,0.0,26,0.00,,---,0.00,VWS V14.01,2013-08-05 05:25:00,
2013-08-04 22:30:00,59.9,24.5,30.06,ENE,59,0.0,0.0,26,0.00,,---,0.00,VWS V14.01,2013-08-05 05:30:00,
2013-08-04 22:35:00,59.2,23.9,30.06,ENE,59,0.0,0.0,26,0.00,,---,0.00,VWS V14.01,2013-08-05 05:35:00,
2013-08-04 22:41:00,58.6,23.4,30.06,ENE,59,0.0,0.0,26,0.00,,---,0.00,VWS V14.01,2013-08-05 05:41:00,
2013-08-04 22:48:00,58.5,23.3,30.06,ENE,59,0.0,0.0,26,0.00,,---,0.00,VWS V14.01,2013-08-05 05:48:00,
2013-08-04 22:53:00,58.5,23.3,30.06,ENE,59,0.0,0.0,26,0.00,,---,0.00,VWS V14.01,2013-08-05 05:53:00,
2013-08-04 22:59:00,58.1,23.0,30.06,ENE,59,0.0,0.0,26,0.00,,---,0.00,VWS V14.01,2013-08-05 05:59:00,
2013-08-04 23:04:00,57.7,22.6,30.06,ENE,59,0.0,0.0,26,0.00,,---,0.00,VWS V14.01,2013-08-05 06:04:00,
2013-08-04 23:09:00,57.2,22.2,30.06,ENE,59,0.0,0.0,26,0.00,,---,0.00,VWS V14.01,2013-08-05 06:09:00,
2013-08-04 23:14:00,56.8,21.9,30.06,ENE,59,0.0,0.0,26,0.00,,---,0.00,VWS V14.01,2013-08-05 06:14:00,
2013-08-04 23:20:00,56.1,21.3,30.06,ENE,59,0.0,0.0,26,0.00,,---,0.00,VWS V14.01,2013-08-05 06:20:00,
2013-08-04 23:27:00,55.9,21.1,30.06,ENE,59,0.0,0.0,26,0.00,,---,0.00,VWS V14.01,2013-08-05 06:27:00,
2013-08-04 23:32:00,55.8,21.0,30.06,ENE,59,0.0,0.0,26,0.00,,---,0.00,VWS V14.01,2013-08-05 06:32:00,
2013-08-04 23:37:00,55.6,20.8,30.06,ENE,59,0.0,0.0,26,0.00,,---,0.00,VWS V14.01,2013-08-05 06:37:00,
2013-08-04 23:42:00,55.4,20.6,30.06,ENE,59,0.0,0.0,26,0.00,,---,0.00,VWS V14.01,2013-08-05 06:42:00,
2013-08-04 23:48:00,54.9,21.5,30.06,ENE,59,0.0,0.0,27,0.00,,---,0.00,VWS V14.01,2013-08-05 06:48:00,
2013-08-04 23:54:00,54.3,21.1,30.06,ENE,59,0.0,0.0,27,0.00,,---,0.00,VWS V14.01,2013-08-05 06:54:00,